Time;durP1;ratioP1;P1;durP2;ratioP2;P2;SDS_P1;SDS_P2;PMS_P1;PMS_P2;Temp;Humidity;BMP_temperature;BMP_pressure;BME280_temperature;BME280_humidity;BME280_pressure;Samples;Min_cycle;Max_cycle;Signal;HPM_P1;HPM_P2
2021/12/27 00:01:00;;;;;;;22.77;10.03;;;8.30;99.90;;;;;;5009752;28;20393;-53
2021/12/27 00:03:26;;;;;;;18.63;9.38;;;8.30;99.90;;;;;;5008737;28;20403;-53
2021/12/27 00:05:52;;;;;;;18.95;10.20;;;8.30;99.90;;;;;;5010436;28;20480;-54
2021/12/27 00:08:18;;;;;;;19.35;10.82;;;8.20;99.90;;;;;;5011632;28;20859;-54
2021/12/27 00:10:44;;;;;;;19.00;9.77;;;8.20;99.90;;;;;;5005854;28;20497;-54
2021/12/27 00:13:09;;;;;;;20.23;10.43;;;8.20;99.90;;;;;;5008206;28;20458;-54
2021/12/27 00:15:35;;;;;;;20.10;10.03;;;8.20;99.90;;;;;;5009873;28;20455;-54
2021/12/27 00:18:01;;;;;;;17.52;9.85;;;8.20;99.90;;;;;;5010274;28;20412;-54
2021/12/27 00:20:27;;;;;;;16.75;9.80;;;8.10;99.90;;;;;;5010362;28;20434;-53
2021/12/27 00:22:53;;;;;;;16.38;9.50;;;8.10;99.90;;;;;;5007578;28;20492;-53
2021/12/27 00:25:20;;;;;;;16.92;9.02;;;8.20;99.90;;;;;;5008484;28;20866;-53
2021/12/27 00:27:47;;;;;;;19.25;9.20;;;8.30;99.90;;;;;;5007957;28;20483;-54
2021/12/27 00:30:15;;;;;;;17.63;9.40;;;8.30;99.90;;;;;;5009257;28;20408;-54
2021/12/27 00:32:43;;;;;;;18.20;9.23;;;8.40;99.90;;;;;;5006605;28;20405;-54
2021/12/27 00:35:10;;;;;;;21.85;10.30;;;8.50;99.90;;;;;;5010282;28;20401;-54
2021/12/27 00:37:36;;;;;;;17.95;9.27;;;8.50;99.90;;;;;;5009670;28;20512;-53
2021/12/27 00:40:04;;;;;;;18.42;9.45;;;8.40;99.90;;;;;;5010076;28;20459;-54
2021/12/27 00:42:29;;;;;;;19.00;8.82;;;8.60;99.90;;;;;;5008931;28;20461;-54
2021/12/27 00:44:55;;;;;;;17.35;9.48;;;8.60;99.90;;;;;;5009438;28;20393;-54
2021/12/27 00:47:21;;;;;;;17.93;9.40;;;8.70;99.90;;;;;;5010303;28;20389;-54
2021/12/27 00:49:46;;;;;;;14.95;8.70;;;8.70;99.90;;;;;;5009369;28;20385;-54
2021/12/27 00:52:12;;;;;;;17.20;8.80;;;8.60;99.90;;;;;;5008942;28;20408;-53
2021/12/27 00:54:38;;;;;;;16.13;9.20;;;8.50;99.90;;;;;;5008893;28;20440;-53
2021/12/27 00:57:03;;;;;;;15.32;8.00;;;8.50;99.90;;;;;;5008287;28;20426;-54
2021/12/27 00:59:29;;;;;;;14.93;8.20;;;8.60;99.90;;;;;;5009407;28;20423;-54
2021/12/27 01:01:56;;;;;;;16.45;8.60;;;8.50;99.90;;;;;;5008311;28;20396;-53
2021/12/27 01:04:22;;;;;;;15.57;8.38;;;8.50;99.90;;;;;;5008701;28;20467;-54
2021/12/27 01:06:48;;;;;;;17.10;8.55;;;8.50;99.90;;;;;;5009643;28;20380;-54
2021/12/27 01:09:22;;;;;;;14.35;7.63;;;8.50;99.90;;;;;;5009538;28;20379;-54
2021/12/27 01:12:11;;;;;;;16.13;9.25;;;8.50;99.90;;;;;;5006756;28;20766;-53
2021/12/27 01:14:44;;;;;;;15.27;8.25;;;8.50;99.90;;;;;;5008331;28;20823;-53
2021/12/27 01:17:11;;;;;;;14.23;7.77;;;8.50;99.90;;;;;;5008020;28;20403;-53
2021/12/27 01:19:36;;;;;;;17.55;8.40;;;8.50;99.90;;;;;;5008635;28;20897;-53
2021/12/27 01:22:03;;;;;;;16.17;7.80;;;8.50;99.90;;;;;;5009802;28;20421;-54
2021/12/27 01:24:29;;;;;;;15.48;8.20;;;8.60;99.90;;;;;;5010161;28;20411;-53
2021/12/27 01:26:54;;;;;;;14.40;7.30;;;8.60;99.90;;;;;;5008972;28;20393;-54
2021/12/27 01:29:20;;;;;;;14.73;7.87;;;8.70;99.90;;;;;;5009030;28;20412;-53
2021/12/27 01:31:46;;;;;;;14.52;7.60;;;8.60;99.90;;;;;;5005988;28;20435;-53
2021/12/27 01:34:12;;;;;;;16.15;8.32;;;9.80;99.90;;;;;;5008951;28;20393;-54
2021/12/27 01:36:39;;;;;;;16.77;7.88;;;8.60;99.90;;;;;;5008199;28;20734;-54
2021/12/27 01:39:05;;;;;;;15.95;7.90;;;8.70;99.90;;;;;;5009833;28;20437;-53
2021/12/27 01:41:31;;;;;;;14.35;7.60;;;8.60;99.90;;;;;;5009574;28;20385;-54
2021/12/27 01:43:57;;;;;;;15.90;8.97;;;8.60;99.90;;;;;;5008738;28;20527;-54
2021/12/27 01:46:28;;;;;;;14.75;8.20;;;8.50;99.90;;;;;;5009436;28;20492;-53
2021/12/27 01:48:57;;;;;;;17.08;8.65;;;8.50;99.90;;;;;;5008524;28;20466;-54
2021/12/27 01:51:25;;;;;;;18.83;9.18;;;8.40;99.90;;;;;;5008970;28;20953;-53
2021/12/27 01:53:51;;;;;;;16.75;8.85;;;8.40;99.90;;;;;;5008775;28;20403;-53
2021/12/27 01:56:20;;;;;;;18.77;9.15;;;8.50;99.90;;;;;;5009252;28;20964;-53
2021/12/27 01:58:47;;;;;;;20.13;10.10;;;8.40;99.90;;;;;;5008119;28;20389;-53
2021/12/27 02:01:13;;;;;;;16.60;8.67;;;8.30;99.90;;;;;;5009183;28;20397;-54
2021/12/27 02:03:41;;;;;;;16.63;9.03;;;8.20;99.90;;;;;;5008549;28;20539;-53
2021/12/27 02:06:08;;;;;;;17.88;9.07;;;8.20;99.90;;;;;;5008914;28;20400;-53
2021/12/27 02:08:39;;;;;;;17.42;8.80;;;8.20;99.90;;;;;;5008583;28;20472;-53
2021/12/27 02:11:06;;;;;;;16.85;8.25;;;8.10;99.90;;;;;;5009010;28;20393;-53
2021/12/27 02:13:32;;;;;;;17.27;8.60;;;8.10;99.90;;;;;;5008926;28;20467;-54
2021/12/27 02:15:58;;;;;;;15.63;7.93;;;8.00;99.90;;;;;;5008153;28;20405;-54
2021/12/27 02:18:24;;;;;;;15.50;8.17;;;8.00;99.90;;;;;;5009051;28;20564;-54
2021/12/27 02:20:50;;;;;;;14.13;8.02;;;8.00;99.90;;;;;;5005924;28;20854;-53
2021/12/27 02:23:17;;;;;;;15.30;7.75;;;8.10;99.90;;;;;;5008979;28;20393;-53
2021/12/27 02:25:46;;;;;;;13.57;7.25;;;8.10;99.90;;;;;;5008116;28;20385;-54
2021/12/27 02:28:12;;;;;;;14.57;7.40;;;8.10;99.90;;;;;;5006211;28;20388;-54
2021/12/27 02:30:40;;;;;;;14.27;7.80;;;8.10;99.90;;;;;;5007937;28;20404;-53
2021/12/27 02:33:06;;;;;;;12.13;6.90;;;8.00;99.90;;;;;;5005641;28;20969;-54
2021/12/27 02:35:59;;;;;;;12.40;6.50;;;8.00;99.90;;;;;;5008840;28;20520;-53
2021/12/27 02:38:28;;;;;;;14.30;6.97;;;7.90;99.90;;;;;;5006679;28;20490;-53
2021/12/27 02:40:55;;;;;;;14.35;7.47;;;7.90;99.90;;;;;;5007330;28;20393;-53
2021/12/27 02:43:23;;;;;;;15.15;7.30;;;7.90;99.90;;;;;;5012849;28;20451;-53
2021/12/27 02:45:51;;;;;;;15.60;7.70;;;7.90;99.90;;;;;;5012121;28;20385;-54
2021/12/27 02:48:19;;;;;;;17.52;7.65;;;7.90;99.90;;;;;;5012537;28;20384;-53
2021/12/27 02:50:47;;;;;;;13.25;7.25;;;7.80;99.90;;;;;;5011734;28;20480;-53
2021/12/27 02:53:13;;;;;;;15.00;6.90;;;7.90;99.90;;;;;;5009900;28;20854;-54
2021/12/27 02:55:39;;;;;;;11.63;6.97;;;7.80;99.90;;;;;;5011639;28;20410;-54
2021/12/27 02:58:05;;;;;;;12.43;6.40;;;7.80;99.90;;;;;;5010870;28;20885;-53
2021/12/27 03:00:37;;;;;;;12.93;7.45;;;8.00;99.90;;;;;;5012751;28;20881;-54
2021/12/27 03:03:03;;;;;;;14.98;7.30;;;8.00;99.90;;;;;;5011804;28;20392;-54
2021/12/27 03:05:29;;;;;;;14.70;7.05;;;8.10;99.90;;;;;;5012100;28;20424;-54
2021/12/27 03:07:56;;;;;;;12.57;6.43;;;8.10;99.90;;;;;;5007763;28;20491;-54
2021/12/27 03:10:28;;;;;;;13.60;6.63;;;8.00;99.90;;;;;;5010032;28;20479;-54
2021/12/27 03:12:55;;;;;;;12.50;7.05;;;7.90;99.90;;;;;;5010526;28;20397;-54
2021/12/27 03:15:23;;;;;;;12.93;6.57;;;7.90;99.90;;;;;;5012136;28;20413;-53
2021/12/27 03:17:51;;;;;;;13.82;6.97;;;7.90;99.90;;;;;;5009084;28;20415;-54
2021/12/27 03:20:20;;;;;;;12.40;6.80;;;7.80;99.90;;;;;;5012271;28;20392;-54
2021/12/27 03:22:46;;;;;;;13.20;6.97;;;7.70;99.90;;;;;;5011086;28;20397;-53
2021/12/27 03:25:15;;;;;;;12.57;7.20;;;7.70;99.90;;;;;;5012112;28;20894;-53
2021/12/27 03:27:42;;;;;;;14.38;7.18;;;7.70;99.90;;;;;;5010933;28;20389;-53
2021/12/27 03:30:10;;;;;;;12.27;6.40;;;7.70;99.90;;;;;;5010238;28;20765;-54
2021/12/27 03:32:37;;;;;;;12.90;6.07;;;7.80;99.90;;;;;;5011984;28;20385;-52
2021/12/27 03:35:11;;;;;;;12.68;6.30;;;7.80;99.90;;;;;;5011217;28;20409;-52
2021/12/27 03:37:39;;;;;;;10.38;5.45;;;7.90;99.90;;;;;;5011624;28;20468;-51
2021/12/27 03:40:08;;;;;;;13.90;6.37;;;8.00;99.90;;;;;;5011738;28;20401;-54
2021/12/27 03:42:33;;;;;;;16.10;6.10;;;8.10;99.90;;;;;;5011737;28;21147;-54
2021/12/27 03:45:00;;;;;;;11.07;6.60;;;8.10;99.90;;;;;;5010646;28;20404;-53
2021/12/27 03:47:26;;;;;;;11.43;6.15;;;8.10;99.90;;;;;;5011551;28;20429;-53
2021/12/27 03:49:52;;;;;;;12.82;6.03;;;8.10;99.90;;;;;;5010734;28;20851;-53
2021/12/27 03:52:18;;;;;;;10.43;5.93;;;8.20;99.90;;;;;;5010933;28;20381;-54
2021/12/27 03:54:43;;;;;;;12.57;5.80;;;8.10;99.90;;;;;;5010484;28;20417;-53
2021/12/27 03:57:09;;;;;;;14.27;6.30;;;8.30;99.90;;;;;;5011415;28;20428;-53
2021/12/27 03:59:52;;;;;;;11.63;6.50;;;8.20;99.90;;;;;;5011682;28;20492;-54
2021/12/27 04:02:17;;;;;;;11.00;6.35;;;8.10;99.90;;;;;;5011678;28;20396;-54
2021/12/27 04:04:44;;;;;;;12.57;6.07;;;8.20;99.90;;;;;;5011377;28;20381;-54
2021/12/27 04:07:10;;;;;;;12.63;6.00;;;8.40;99.90;;;;;;5012245;28;20377;-53
2021/12/27 04:09:37;;;;;;;11.60;6.18;;;8.20;99.90;;;;;;5011889;28;20392;-54
2021/12/27 04:12:04;;;;;;;13.82;6.10;;;8.20;99.90;;;;;;5011575;28;20481;-54
2021/12/27 04:14:29;;;;;;;11.50;5.90;;;8.10;99.90;;;;;;5011691;28;20475;-54
2021/12/27 04:16:55;;;;;;;11.05;5.53;;;8.10;99.90;;;;;;5010962;28;20430;-54
2021/12/27 04:19:21;;;;;;;11.90;6.10;;;8.20;99.90;;;;;;5011867;28;20380;-54
2021/12/27 04:21:47;;;;;;;14.35;6.35;;;8.30;99.90;;;;;;5007832;28;20398;-53
2021/12/27 04:24:13;;;;;;;13.50;6.10;;;8.40;99.90;;;;;;4998783;28;20865;-54
2021/12/27 04:26:39;;;;;;;12.38;6.50;;;8.60;99.90;;;;;;5003366;28;20413;-53
2021/12/27 04:29:05;;;;;;;20.45;11.13;;;8.60;99.90;;;;;;4991588;28;20411;-53
2021/12/27 04:31:31;;;;;;;22.90;10.70;;;8.70;99.90;;;;;;4992138;28;20387;-54
2021/12/27 04:33:57;;;;;;;26.67;13.53;;;8.60;99.90;;;;;;4991369;28;20391;-53
2021/12/27 04:36:23;;;;;;;26.10;13.35;;;8.70;99.90;;;;;;4991734;28;20438;-53
2021/12/27 04:38:49;;;;;;;18.98;11.10;;;8.70;99.90;;;;;;4990684;28;20823;-53
2021/12/27 04:41:19;;;;;;;13.18;6.85;;;8.70;99.90;;;;;;4991755;28;20426;-53
2021/12/27 04:43:44;;;;;;;12.20;6.70;;;8.80;99.90;;;;;;4990561;28;20410;-53
2021/12/27 04:46:10;;;;;;;13.35;6.72;;;8.80;99.90;;;;;;4991610;28;20493;-53
2021/12/27 04:48:36;;;;;;;13.10;6.50;;;8.90;99.90;;;;;;4991777;28;20393;-53
2021/12/27 04:51:02;;;;;;;15.40;7.07;;;8.80;99.90;;;;;;4990707;28;20392;-53
2021/12/27 04:53:27;;;;;;;11.95;6.10;;;8.70;99.90;;;;;;4991439;28;20860;-53
2021/12/27 04:55:53;;;;;;;15.77;7.13;;;8.80;99.90;;;;;;4990324;28;20442;-53
2021/12/27 04:58:23;;;;;;;15.48;9.57;;;8.80;99.90;;;;;;4991138;28;20563;-54
2021/12/27 05:00:50;;;;;;;19.45;11.18;;;8.80;99.90;;;;;;4990097;28;20410;-54
2021/12/27 05:03:16;;;;;;;17.40;8.85;;;8.70;99.90;;;;;;4990394;28;20887;-54
2021/12/27 05:05:44;;;;;;;16.20;7.13;;;8.80;99.90;;;;;;4990223;28;20395;-54
2021/12/27 05:08:11;;;;;;;13.75;6.40;;;8.80;99.90;;;;;;4991434;28;20382;-54
2021/12/27 05:10:37;;;;;;;13.85;5.80;;;8.80;99.90;;;;;;4989932;28;20457;-53
2021/12/27 05:13:03;;;;;;;12.47;6.90;;;8.70;99.90;;;;;;4989859;28;20399;-53
2021/12/27 05:15:29;;;;;;;13.25;6.80;;;8.70;99.90;;;;;;4991006;28;20876;-54
2021/12/27 05:17:55;;;;;;;13.43;6.73;;;8.80;99.90;;;;;;4989912;28;20447;-53
2021/12/27 05:20:21;;;;;;;12.60;6.22;;;8.80;99.90;;;;;;4997502;28;20435;-54
2021/12/27 05:22:47;;;;;;;11.60;6.00;;;8.70;99.90;;;;;;4991145;28;20382;-54
2021/12/27 05:25:16;;;;;;;10.83;6.27;;;8.70;99.90;;;;;;5009743;28;20388;-53
2021/12/27 05:27:42;;;;;;;12.60;7.03;;;8.70;99.90;;;;;;4997196;28;20387;-53
2021/12/27 05:30:09;;;;;;;12.97;6.80;;;8.60;99.90;;;;;;4990419;28;20457;-53
2021/12/27 05:32:35;;;;;;;13.75;6.80;;;8.70;99.90;;;;;;4990700;28;20394;-54
2021/12/27 05:35:03;;;;;;;14.85;6.28;;;8.70;99.90;;;;;;4989942;28;20502;-54
2021/12/27 05:37:28;;;;;;;14.40;6.43;;;8.60;99.90;;;;;;4990199;28;20506;-53
2021/12/27 05:39:54;;;;;;;12.68;6.55;;;8.50;99.90;;;;;;5004807;28;20418;-54
2021/12/27 05:42:20;;;;;;;12.40;6.77;;;8.60;99.90;;;;;;4990493;28;20474;-54
2021/12/27 05:44:45;;;;;;;11.70;6.60;;;8.60;99.90;;;;;;4989610;28;20844;-54
2021/12/27 05:47:11;;;;;;;11.95;6.60;;;8.60;99.90;;;;;;4990375;28;20860;-54
2021/12/27 05:49:37;;;;;;;11.30;6.10;;;8.60;99.90;;;;;;4996536;28;20453;-54
2021/12/27 05:52:03;;;;;;;10.43;5.50;;;8.50;99.90;;;;;;5000925;28;20379;-53
2021/12/27 05:54:28;;;;;;;10.95;6.20;;;8.50;99.90;;;;;;4991952;28;20379;-54
2021/12/27 05:56:54;;;;;;;11.10;6.40;;;8.40;99.90;;;;;;5009018;28;20412;-56
2021/12/27 05:59:20;;;;;;;11.30;6.10;;;8.40;99.90;;;;;;5009422;28;20397;-56
2021/12/27 06:01:46;;;;;;;12.27;5.95;;;8.40;99.90;;;;;;5008691;28;20889;-55
2021/12/27 06:04:12;;;;;;;13.00;6.20;;;8.40;99.90;;;;;;5009733;28;20435;-56
2021/12/27 06:06:38;;;;;;;12.63;6.53;;;8.50;99.90;;;;;;5009985;28;20763;-56
2021/12/27 06:09:05;;;;;;;12.52;6.70;;;8.50;99.90;;;;;;4996004;28;20407;-55
2021/12/27 06:11:31;;;;;;;14.10;6.70;;;8.70;99.90;;;;;;5005753;28;20408;-54
2021/12/27 06:13:57;;;;;;;14.13;7.30;;;8.50;99.90;;;;;;5004360;28;20410;-53
2021/12/27 06:16:23;;;;;;;11.40;6.70;;;8.50;99.90;;;;;;4989625;28;20410;-54
2021/12/27 06:18:49;;;;;;;11.98;6.82;;;8.50;99.90;;;;;;4996193;28;20406;-53
2021/12/27 06:21:15;;;;;;;10.88;6.50;;;8.60;99.90;;;;;;4996776;28;20933;-54
2021/12/27 06:23:42;;;;;;;12.43;7.10;;;8.30;99.90;;;;;;5009424;28;20420;-54
2021/12/27 06:26:07;;;;;;;14.20;7.25;;;8.30;99.90;;;;;;4991848;28;20748;-54
2021/12/27 06:28:34;;;;;;;13.77;7.65;;;8.10;99.90;;;;;;4989613;28;20390;-52
2021/12/27 06:31:01;;;;;;;12.45;7.03;;;8.00;99.90;;;;;;4996058;28;20417;-54
2021/12/27 06:33:27;;;;;;;13.30;7.43;;;7.90;99.90;;;;;;5006974;28;20384;-52
2021/12/27 06:35:53;;;;;;;12.00;7.00;;;7.80;99.90;;;;;;5008214;28;20419;-52
2021/12/27 06:38:21;;;;;;;13.90;7.85;;;7.80;99.90;;;;;;5009052;28;20401;-54
2021/12/27 06:40:47;;;;;;;14.03;7.10;;;7.70;99.90;;;;;;5008171;28;20400;-53
2021/12/27 06:43:13;;;;;;;12.27;7.40;;;7.70;99.90;;;;;;5002007;28;20620;-52
2021/12/27 06:45:39;;;;;;;11.32;6.70;;;7.50;99.90;;;;;;4990423;28;20513;-52
2021/12/27 06:48:05;;;;;;;11.70;6.55;;;7.40;99.90;;;;;;4993729;28;20396;-52
2021/12/27 06:50:30;;;;;;;13.07;6.60;;;7.20;99.90;;;;;;4995588;28;20393;-52
2021/12/27 06:52:56;;;;;;;11.95;6.82;;;7.20;99.90;;;;;;5007901;28;20393;-53
2021/12/27 06:55:22;;;;;;;11.40;6.70;;;7.40;99.90;;;;;;5008789;28;20444;-52
2021/12/27 06:57:49;;;;;;;13.02;7.22;;;7.20;99.90;;;;;;5007667;28;20864;-54
2021/12/27 07:00:15;;;;;;;12.83;7.13;;;7.10;99.90;;;;;;4996703;28;20426;-53
2021/12/27 07:02:43;;;;;;;12.23;7.68;;;7.10;99.90;;;;;;4996938;28;20448;-53
2021/12/27 07:05:09;;;;;;;13.80;7.65;;;7.00;99.90;;;;;;4995823;28;20417;-53
2021/12/27 07:07:35;;;;;;;12.10;7.47;;;7.00;99.90;;;;;;4995042;28;20507;-53
2021/12/27 07:10:01;;;;;;;14.30;7.80;;;6.00;99.90;;;;;;4987675;28;20402;-53
2021/12/27 07:12:28;;;;;;;13.70;7.80;;;6.80;99.90;;;;;;4989852;28;20413;-56
2021/12/27 07:14:54;;;;;;;11.50;7.55;;;6.60;99.90;;;;;;4999401;28;20413;-53
2021/12/27 07:17:20;;;;;;;12.32;7.20;;;6.60;99.90;;;;;;4991072;28;20469;-53
2021/12/27 07:19:45;;;;;;;11.98;7.20;;;6.60;99.90;;;;;;4991764;28;20390;-53
2021/12/27 07:22:11;;;;;;;13.07;7.67;;;7.10;99.90;;;;;;4995848;28;20466;-53
2021/12/27 07:24:37;;;;;;;12.30;7.57;;;6.70;99.90;;;;;;4999208;28;20695;-53
2021/12/27 07:27:03;;;;;;;14.70;8.07;;;6.70;99.90;;;;;;4995365;28;20960;-52
2021/12/27 07:29:29;;;;;;;12.55;7.75;;;6.80;99.90;;;;;;4999654;28;20803;-53
2021/12/27 07:31:54;;;;;;;13.93;8.10;;;7.60;99.90;;;;;;5007162;28;20498;-53
2021/12/27 07:34:24;;;;;;;14.07;7.80;;;7.00;99.90;;;;;;5010947;28;20881;-53
2021/12/27 07:36:54;;;;;;;13.13;7.85;;;7.10;99.90;;;;;;5010180;28;20389;-53
2021/12/27 07:39:21;;;;;;;13.30;8.20;;;7.10;99.90;;;;;;5004358;28;20567;-53
2021/12/27 07:41:46;;;;;;;13.85;7.72;;;7.00;99.90;;;;;;5010180;28;20393;-53
2021/12/27 07:44:12;;;;;;;13.33;8.07;;;7.00;99.90;;;;;;5011055;28;20407;-53
2021/12/27 07:46:42;;;;;;;12.98;7.93;;;6.90;99.90;;;;;;5009594;28;20487;-53
2021/12/27 07:49:08;;;;;;;12.48;7.95;;;6.90;99.90;;;;;;5007416;28;20559;-52
2021/12/27 07:51:34;;;;;;;13.88;8.30;;;6.90;99.90;;;;;;5010043;28;20590;-53
2021/12/27 07:54:00;;;;;;;14.70;7.90;;;6.90;99.90;;;;;;5008198;28;20457;-53
2021/12/27 07:56:32;;;;;;;12.60;8.10;;;6.90;99.90;;;;;;5010902;28;20409;-53
2021/12/27 07:59:03;;;;;;;13.85;8.30;;;7.10;99.90;;;;;;5009915;28;20448;-52
2021/12/27 08:01:30;;;;;;;14.38;8.15;;;7.20;99.90;;;;;;5008093;28;20993;-53
2021/12/27 08:03:56;;;;;;;12.50;8.10;;;7.30;99.90;;;;;;5007103;28;20877;-53
2021/12/27 08:06:22;;;;;;;13.30;8.50;;;7.30;99.90;;;;;;5008351;28;20396;-53
2021/12/27 08:08:47;;;;;;;13.97;8.77;;;7.40;99.90;;;;;;5010223;28;20377;-53
2021/12/27 08:11:13;;;;;;;12.00;7.80;;;7.50;99.90;;;;;;5007502;28;20480;-53
2021/12/27 08:13:42;;;;;;;12.47;7.70;;;7.60;99.90;;;;;;5008297;28;20393;-54
2021/12/27 08:16:08;;;;;;;12.60;7.50;;;7.40;99.90;;;;;;5009916;28;20408;-53
2021/12/27 08:18:34;;;;;;;13.20;7.13;;;7.60;99.90;;;;;;5010620;28;20391;-53
2021/12/27 08:20:59;;;;;;;14.38;8.23;;;7.70;99.90;;;;;;5009696;28;20570;-53
2021/12/27 08:23:25;;;;;;;11.63;7.37;;;7.70;99.90;;;;;;5010946;28;21040;-53
2021/12/27 08:25:51;;;;;;;13.27;7.75;;;7.70;99.90;;;;;;5009744;28;20389;-53
2021/12/27 08:28:17;;;;;;;12.07;7.10;;;7.80;99.90;;;;;;5007459;28;20397;-53
2021/12/27 08:30:42;;;;;;;11.23;6.82;;;7.90;99.90;;;;;;5008912;28;20814;-53
2021/12/27 08:33:08;;;;;;;11.00;6.70;;;7.90;99.90;;;;;;5003203;28;20400;-53
2021/12/27 08:35:36;;;;;;;10.50;6.80;;;7.90;99.90;;;;;;5005313;28;20861;-53
2021/12/27 08:38:02;;;;;;;11.23;7.07;;;8.00;99.90;;;;;;5004953;28;20474;-53
2021/12/27 08:40:28;;;;;;;14.75;6.90;;;8.10;99.90;;;;;;5010116;28;20860;-54
2021/12/27 08:42:54;;;;;;;11.15;6.75;;;8.30;99.90;;;;;;5009391;28;20389;-53
2021/12/27 08:45:20;;;;;;;10.70;6.20;;;8.30;99.90;;;;;;5004495;28;20800;-52
2021/12/27 08:47:46;;;;;;;10.17;5.90;;;8.30;99.90;;;;;;5007394;28;20444;-52
2021/12/27 08:50:12;;;;;;;10.35;5.90;;;8.50;99.90;;;;;;5009062;28;20477;-52
2021/12/27 08:52:39;;;;;;;10.07;6.30;;;8.60;99.90;;;;;;5004800;28;20901;-52
2021/12/27 08:55:05;;;;;;;9.40;5.70;;;8.70;99.90;;;;;;5007367;28;20411;-53
2021/12/27 08:57:32;;;;;;;9.90;5.50;;;8.70;99.90;;;;;;5009839;28;20392;-53
2021/12/27 08:59:58;;;;;;;12.75;5.93;;;8.70;99.90;;;;;;5003678;28;20428;-53
2021/12/27 09:02:24;;;;;;;10.30;6.10;;;8.80;99.90;;;;;;5010009;28;20389;-53
2021/12/27 09:04:50;;;;;;;11.03;5.77;;;9.00;99.90;;;;;;5009908;28;20711;-54
2021/12/27 09:07:18;;;;;;;9.45;5.55;;;9.20;99.90;;;;;;5000686;28;20391;-54
2021/12/27 09:09:44;;;;;;;11.65;5.15;;;9.40;99.90;;;;;;5007569;28;20798;-54
2021/12/27 09:12:11;;;;;;;9.30;5.00;;;9.60;99.90;;;;;;5003135;28;20394;-54
2021/12/27 09:14:37;;;;;;;8.68;4.45;;;9.70;99.90;;;;;;5003489;28;20400;-52
2021/12/27 09:17:03;;;;;;;13.50;4.30;;;10.00;99.90;;;;;;5008008;28;20447;-53
2021/12/27 09:19:29;;;;;;;7.97;4.50;;;10.50;99.90;;;;;;5005796;28;20539;-55
2021/12/27 09:21:55;;;;;;;9.40;4.70;;;10.70;99.90;;;;;;5006038;28;20526;-56
2021/12/27 09:24:21;;;;;;;8.07;4.20;;;11.00;99.90;;;;;;5009885;28;20408;-56
2021/12/27 09:26:47;;;;;;;8.52;4.20;;;11.20;99.90;;;;;;5006030;28;20400;-53
2021/12/27 09:29:13;;;;;;;9.93;4.27;;;11.60;99.90;;;;;;5008965;28;20558;-55
2021/12/27 09:31:38;;;;;;;7.38;3.60;;;11.80;99.90;;;;;;5004554;28;20417;-54
2021/12/27 09:34:04;;;;;;;8.70;4.50;;;12.60;99.90;;;;;;5007556;28;20461;-55
2021/12/27 09:36:30;;;;;;;9.02;4.82;;;13.00;99.90;;;;;;5008904;28;20524;-55
2021/12/27 09:38:56;;;;;;;9.50;7.70;;;13.40;99.90;;;;;;5008824;28;20397;-54
2021/12/27 09:41:23;;;;;;;8.85;5.35;;;14.00;99.90;;;;;;5009142;28;20392;-52
2021/12/27 09:43:48;;;;;;;9.88;5.85;;;14.30;99.90;;;;;;5008295;28;20476;-54
2021/12/27 09:46:14;;;;;;;7.68;4.32;;;14.20;99.90;;;;;;5008205;28;20825;-52
2021/12/27 09:48:40;;;;;;;8.90;6.50;;;14.70;99.90;;;;;;5009439;28;20389;-52
2021/12/27 09:51:07;;;;;;;11.95;5.22;;;15.00;99.90;;;;;;5003157;28;20548;-51
2021/12/27 09:53:32;;;;;;;9.65;5.72;;;15.10;99.90;;;;;;5007888;28;20754;-52
2021/12/27 09:55:59;;;;;;;12.43;6.22;;;15.30;99.90;;;;;;5006457;28;20523;-52
2021/12/27 09:58:25;;;;;;;9.23;5.60;;;15.90;99.90;;;;;;5001315;28;20728;-52
2021/12/27 10:00:51;;;;;;;9.68;5.90;;;15.90;99.90;;;;;;5003639;28;20888;-53
2021/12/27 10:03:17;;;;;;;8.32;4.30;;;16.30;99.90;;;;;;5001634;28;20392;-52
2021/12/27 10:05:42;;;;;;;8.63;5.20;;;15.80;99.90;;;;;;5009580;28;20405;-52
2021/12/27 10:08:08;;;;;;;7.90;4.00;;;15.30;99.90;;;;;;5008941;28;20900;-52
2021/12/27 10:10:35;;;;;;;7.70;3.90;;;15.30;99.90;;;;;;5007119;28;20882;-55
2021/12/27 10:13:07;;;;;;;11.15;7.10;;;15.90;99.90;;;;;;5004532;28;20889;-56
2021/12/27 10:15:39;;;;;;;8.60;5.10;;;17.10;99.90;;;;;;5001613;28;20968;-54
2021/12/27 10:18:15;;;;;;;7.63;3.63;;;17.60;99.90;;;;;;5006780;28;20412;-53
2021/12/27 10:20:43;;;;;;;8.30;5.60;;;18.10;99.90;;;;;;5009025;28;20890;-51
2021/12/27 10:23:09;;;;;;;8.13;3.40;;;18.20;99.90;;;;;;5004685;28;20482;-51
2021/12/27 10:25:36;;;;;;;7.80;3.40;;;18.30;99.90;;;;;;5007612;28;20413;-52
2021/12/27 10:28:03;;;;;;;8.02;3.30;;;18.30;99.90;;;;;;5008522;28;20416;-52
2021/12/27 10:30:34;;;;;;;7.90;3.70;;;18.20;99.90;;;;;;5009093;28;20435;-52
2021/12/27 10:33:07;;;;;;;7.63;3.67;;;17.80;99.90;;;;;;5007045;28;20731;-51
2021/12/27 10:35:59;;;;;;;7.90;3.70;;;17.20;99.90;;;;;;5007874;28;20408;-52
2021/12/27 10:38:31;;;;;;;7.90;3.33;;;16.90;99.90;;;;;;5001435;28;20504;-52
2021/12/27 10:41:03;;;;;;;6.10;3.15;;;16.40;99.90;;;;;;5007443;28;20417;-53
2021/12/27 10:43:39;;;;;;;15.33;8.23;;;15.90;99.90;;;;;;5006341;28;20945;-52
2021/12/27 10:46:08;;;;;;;6.97;3.40;;;16.20;99.90;;;;;;5007771;28;20404;-53
2021/12/27 10:48:55;;;;;;;7.40;3.15;;;16.50;99.90;;;;;;5008962;28;20403;-52
2021/12/27 10:51:21;;;;;;;6.85;3.25;;;16.80;99.90;;;;;;5008250;28;20735;-52
2021/12/27 10:53:50;;;;;;;8.77;2.85;;;16.50;99.90;;;;;;5008858;28;20850;-55
2021/12/27 10:56:17;;;;;;;6.40;3.33;;;16.00;99.90;;;;;;5009424;28;20423;-52
2021/12/27 10:58:48;;;;;;;8.88;6.43;;;16.00;99.90;;;;;;5007487;28;20500;-52
2021/12/27 11:01:18;;;;;;;7.63;6.00;;;15.80;99.90;;;;;;5006762;28;20410;-53
2021/12/27 11:03:45;;;;;;;7.30;5.65;;;15.90;99.90;;;;;;5012257;28;20544;-53
2021/12/27 11:06:14;;;;;;;8.13;5.68;;;16.00;99.90;;;;;;5008367;28;20499;-53
2021/12/27 11:08:45;;;;;;;7.80;5.40;;;16.20;99.90;;;;;;5006905;28;20413;-54
2021/12/27 11:11:12;;;;;;;11.93;9.23;;;16.40;99.90;;;;;;5009474;28;20396;-53
2021/12/27 11:13:38;;;;;;;9.40;6.30;;;16.50;99.90;;;;;;5012235;28;20435;-53
2021/12/27 11:16:05;;;;;;;8.07;6.35;;;16.40;99.90;;;;;;5010315;28;20441;-53
2021/12/27 11:18:31;;;;;;;7.40;5.10;;;16.40;99.90;;;;;;5012063;28;20389;-53
2021/12/27 11:21:01;;;;;;;6.77;4.47;;;16.10;99.90;;;;;;5011074;28;20387;-53
2021/12/27 11:23:28;;;;;;;6.60;4.60;;;15.90;99.90;;;;;;5000197;28;20546;-53
2021/12/27 11:26:09;;;;;;;6.85;4.60;;;15.30;99.90;;;;;;5006607;28;20420;-51
2021/12/27 11:28:39;;;;;;;6.40;3.92;;;14.50;99.90;;;;;;5000758;28;20470;-51
2021/12/27 11:31:15;;;;;;;7.35;3.67;;;13.30;99.90;;;;;;4995265;28;20815;-50
2021/12/27 11:34:03;;;;;;;6.18;3.20;;;13.40;99.90;;;;;;4992964;28;20445;-51
2021/12/27 11:36:32;;;;;;;7.07;3.50;;;13.10;99.90;;;;;;4997575;28;20426;-51
2021/12/27 11:39:00;;;;;;;6.90;3.25;;;12.90;99.90;;;;;;4996801;28;20410;-51
2021/12/27 11:41:36;;;;;;;6.10;2.70;;;12.70;99.90;;;;;;4998783;28;20715;-51
2021/12/27 11:44:12;;;;;;;6.30;3.10;;;12.40;99.90;;;;;;4998790;28;20496;-51
2021/12/27 11:46:46;;;;;;;6.40;2.80;;;12.10;99.90;;;;;;4993052;28;20419;-51
2021/12/27 11:49:12;;;;;;;6.60;2.80;;;11.90;99.90;;;;;;5011235;28;20495;-52
2021/12/27 11:51:40;;;;;;;6.35;2.90;;;11.90;99.90;;;;;;5011982;28;20747;-51
2021/12/27 11:54:27;;;;;;;6.35;2.85;;;11.70;99.90;;;;;;5010273;28;20393;-53
2021/12/27 11:56:53;;;;;;;7.38;2.90;;;12.00;99.90;;;;;;4999317;28;20762;-52
2021/12/27 11:59:22;;;;;;;6.20;2.70;;;11.90;99.90;;;;;;5008870;28;20811;-52
2021/12/27 12:01:52;;;;;;;6.90;3.40;;;11.90;99.90;;;;;;4995351;28;20419;-55
2021/12/27 12:04:42;;;;;;;7.17;2.60;;;12.00;99.90;;;;;;5008943;28;20385;-52
2021/12/27 12:07:09;;;;;;;7.45;3.85;;;12.10;99.90;;;;;;5001640;28;20705;-52
2021/12/27 12:09:49;;;;;;;8.30;4.80;;;12.10;99.90;;;;;;4998217;28;20398;-52
2021/12/27 12:12:15;;;;;;;8.95;5.20;;;12.00;99.90;;;;;;4989103;28;20497;-52
2021/12/27 12:14:42;;;;;;;8.90;5.13;;;12.00;99.90;;;;;;4998510;28;20837;-52
2021/12/27 12:17:15;;;;;;;9.73;4.95;;;12.00;99.90;;;;;;5006172;28;20578;-53
2021/12/27 12:19:47;;;;;;;9.43;4.78;;;11.90;99.90;;;;;;4992410;28;20406;-52
2021/12/27 12:22:37;;;;;;;9.93;5.50;;;11.90;99.90;;;;;;5004217;28;20476;-53
2021/12/27 12:25:21;;;;;;;11.20;5.55;;;11.90;99.90;;;;;;4996685;28;20416;-52
2021/12/27 12:27:58;;;;;;;9.27;5.32;;;11.70;99.90;;;;;;4996271;28;20495;-52
2021/12/27 12:30:32;;;;;;;9.80;5.95;;;11.50;99.90;;;;;;4995831;28;20806;-52
2021/12/27 12:33:09;;;;;;;9.52;5.35;;;11.60;99.90;;;;;;4998470;28;20502;-52
2021/12/27 12:35:47;;;;;;;11.77;5.78;;;11.70;99.90;;;;;;5004583;28;20482;-52
2021/12/27 12:38:15;;;;;;;12.17;5.70;;;11.70;99.90;;;;;;5009970;28;20399;-52
2021/12/27 12:40:42;;;;;;;10.70;5.72;;;11.70;99.90;;;;;;5010536;28;20417;-51
2021/12/27 12:43:08;;;;;;;9.05;5.45;;;11.70;99.90;;;;;;4994702;28;20766;-52
2021/12/27 12:45:36;;;;;;;11.40;5.00;;;11.50;99.90;;;;;;5009209;28;20454;-52
2021/12/27 12:48:02;;;;;;;12.18;5.32;;;11.70;99.90;;;;;;5003703;28;20398;-52